createdAt,value
2024-05-09T00:00:42.753Z,0.00
2024-05-09T00:01:42.566Z,0.00
2024-05-09T00:02:42.486Z,0.00
2024-05-09T00:03:42.577Z,0.00
2024-05-09T00:04:42.527Z,0.00
2024-05-09T00:05:42.997Z,0.00
2024-05-09T00:06:42.443Z,0.00
2024-05-09T00:07:42.525Z,0.00
2024-05-09T00:08:42.467Z,0.00
2024-05-09T00:09:42.424Z,0.00
2024-05-09T00:10:42.456Z,0.00
2024-05-09T00:11:42.493Z,0.00
2024-05-09T00:12:42.379Z,0.00
2024-05-09T00:13:42.450Z,0.00
2024-05-09T00:14:42.357Z,0.00
2024-05-09T00:15:42.370Z,0.00
2024-05-09T00:16:42.341Z,0.00
2024-05-09T00:17:42.682Z,0.00
2024-05-09T00:18:42.414Z,0.00
2024-05-09T00:19:42.418Z,0.00
2024-05-09T00:20:42.359Z,0.00
2024-05-09T00:21:42.281Z,0.00
2024-05-09T00:22:42.313Z,0.00
2024-05-09T00:23:42.330Z,0.00
2024-05-09T00:24:42.254Z,0.00
2024-05-09T00:25:42.352Z,0.00
2024-05-09T00:26:42.282Z,0.00
2024-05-09T00:27:42.246Z,0.00
2024-05-09T00:28:42.223Z,0.00
2024-05-09T00:29:42.211Z,0.00
2024-05-09T00:30:42.246Z,0.00
2024-05-09T00:31:42.210Z,0.00
2024-05-09T00:32:42.291Z,0.00
2024-05-09T00:33:42.312Z,0.00
2024-05-09T00:34:42.223Z,0.00
2024-05-09T00:35:42.201Z,0.00
2024-05-09T00:36:42.122Z,0.00
2024-05-09T00:37:42.397Z,0.00
2024-05-09T00:38:42.167Z,0.00
2024-05-09T00:39:42.089Z,0.00
2024-05-09T00:40:43.524Z,0.00
2024-05-09T00:41:42.080Z,0.00
2024-05-09T00:42:42.044Z,0.00
2024-05-09T00:43:42.046Z,0.00
2024-05-09T00:44:42.036Z,0.00
2024-05-09T00:45:42.097Z,0.00
2024-05-09T00:46:42.016Z,0.00
2024-05-09T00:47:42.204Z,0.00
2024-05-09T00:48:42.076Z,0.00
2024-05-09T00:49:42.224Z,0.00
2024-05-09T00:50:42.387Z,0.00
2024-05-09T00:51:41.955Z,0.00
2024-05-09T00:52:41.983Z,0.00
2024-05-09T00:53:41.994Z,0.00
2024-05-09T00:54:41.924Z,0.00
2024-05-09T00:55:41.971Z,0.00
2024-05-09T00:56:41.931Z,0.00
2024-05-09T00:57:41.893Z,0.00
2024-05-09T00:58:41.890Z,0.00
2024-05-09T00:59:41.913Z,0.00
2024-05-09T01:00:42.116Z,0.00
2024-05-09T01:01:42.051Z,0.00
2024-05-09T01:02:41.966Z,0.00
2024-05-09T01:03:41.949Z,0.00
2024-05-09T01:04:41.882Z,0.00
2024-05-09T01:05:42.347Z,0.00
2024-05-09T01:06:41.844Z,0.00
2024-05-09T01:07:41.809Z,0.00
2024-05-09T01:08:41.811Z,0.00
2024-05-09T01:09:41.760Z,0.00
2024-05-09T01:10:44.170Z,0.00
2024-05-09T01:11:41.821Z,0.00
2024-05-09T01:12:41.732Z,0.00
2024-05-09T01:13:41.744Z,0.00
2024-05-09T01:14:41.706Z,0.00
2024-05-09T01:15:41.697Z,0.00
2024-05-09T01:16:41.715Z,0.00
2024-05-09T01:17:41.953Z,0.00
2024-05-09T01:18:41.713Z,0.00
2024-05-09T01:19:41.733Z,0.00
2024-05-09T01:20:44.181Z,0.00
2024-05-09T01:21:41.640Z,0.00
2024-05-09T01:22:41.642Z,0.00
2024-05-09T01:23:41.640Z,0.00
2024-05-09T01:24:41.604Z,0.00
2024-05-09T01:25:41.605Z,0.00
2024-05-09T01:26:41.681Z,0.00
2024-05-09T01:27:41.603Z,0.00
2024-05-09T01:28:41.601Z,0.00
2024-05-09T01:29:41.559Z,0.00
2024-05-09T01:30:41.561Z,0.00
2024-05-09T01:31:41.570Z,0.00
2024-05-09T01:32:41.630Z,0.00
2024-05-09T01:33:41.814Z,0.00
2024-05-09T01:34:41.488Z,0.00
2024-05-09T01:35:42.750Z,0.00
2024-05-09T01:36:41.509Z,0.00
2024-05-09T01:37:41.495Z,0.00
2024-05-09T01:38:41.510Z,0.00
2024-05-09T01:39:41.435Z,0.00
2024-05-09T01:40:41.435Z,0.00
2024-05-09T01:41:41.439Z,0.00
2024-05-09T01:42:41.442Z,0.00
2024-05-09T01:43:41.409Z,0.00
2024-05-09T01:44:41.402Z,0.00
2024-05-09T01:45:41.677Z,0.00
2024-05-09T01:46:41.376Z,0.00
2024-05-09T01:47:41.710Z,0.00
2024-05-09T01:48:41.448Z,0.00
2024-05-09T01:49:41.451Z,0.00
2024-05-09T01:50:43.001Z,0.00
2024-05-09T01:51:41.343Z,0.00
2024-05-09T01:52:41.304Z,0.00
2024-05-09T01:53:41.325Z,0.00
2024-05-09T01:54:41.269Z,0.00
2024-05-09T01:55:41.315Z,0.00
2024-05-09T01:56:41.284Z,0.00
2024-05-09T01:57:41.275Z,0.00
2024-05-09T01:58:41.248Z,0.00
2024-05-09T01:59:41.291Z,0.00
2024-05-09T02:00:42.890Z,0.00
2024-05-09T02:01:56.023Z,0.00
2024-05-09T02:02:42.246Z,0.00
2024-05-09T02:03:41.356Z,0.00
2024-05-09T02:04:41.291Z,0.00
2024-05-09T02:05:41.269Z,0.00
2024-05-09T02:06:41.166Z,0.00
2024-05-09T02:07:41.126Z,0.00
2024-05-09T02:08:41.188Z,0.00
2024-05-09T02:09:41.125Z,0.00
2024-05-09T02:10:41.162Z,0.00
2024-05-09T02:11:41.257Z,0.00
2024-05-09T02:12:41.109Z,0.00
2024-05-09T02:13:41.083Z,0.00
2024-05-09T02:14:41.071Z,0.00
2024-05-09T02:15:41.076Z,0.00
2024-05-09T02:16:41.097Z,0.00
2024-05-09T02:17:41.186Z,0.00
2024-05-09T02:18:41.126Z,0.00
2024-05-09T02:19:41.024Z,0.00
2024-05-09T02:20:41.479Z,0.00
2024-05-09T02:21:40.990Z,0.00
2024-05-09T02:22:40.998Z,0.00
2024-05-09T02:23:41.032Z,0.00
2024-05-09T02:24:40.955Z,0.00
2024-05-09T02:25:40.955Z,0.00
2024-05-09T02:26:41.005Z,0.00
2024-05-09T02:27:40.935Z,0.00
2024-05-09T02:28:40.943Z,0.00
2024-05-09T02:29:40.959Z,0.00
2024-05-09T02:30:42.283Z,0.00
2024-05-09T02:31:40.870Z,0.00
2024-05-09T02:32:41.011Z,0.00
2024-05-09T02:33:41.149Z,0.00
2024-05-09T02:34:40.842Z,0.00
2024-05-09T02:35:40.943Z,0.00
2024-05-09T02:36:40.846Z,0.00
2024-05-09T02:37:40.818Z,0.00
2024-05-09T02:38:40.876Z,0.00
2024-05-09T02:39:40.804Z,0.00
2024-05-09T02:40:41.080Z,0.00
2024-05-09T02:41:40.763Z,0.00
2024-05-09T02:42:40.754Z,0.00
2024-05-09T02:43:40.746Z,0.00
2024-05-09T02:44:40.726Z,0.00
2024-05-09T02:45:40.874Z,0.00
2024-05-09T02:46:40.767Z,0.00
2024-05-09T02:47:40.842Z,0.00
2024-05-09T02:48:40.761Z,0.00
2024-05-09T02:49:40.716Z,0.00
2024-05-09T02:50:41.106Z,0.00
2024-05-09T02:51:40.662Z,0.00
2024-05-09T02:52:40.665Z,0.00
2024-05-09T02:53:40.720Z,0.00
2024-05-09T02:54:40.623Z,0.00
2024-05-09T02:55:40.649Z,0.00
2024-05-09T02:56:40.652Z,0.00
2024-05-09T02:57:40.603Z,0.00
2024-05-09T02:58:40.577Z,0.00
2024-05-09T02:59:40.588Z,0.00
2024-05-09T03:00:42.433Z,0.00
2024-05-09T03:01:41.467Z,0.00
2024-05-09T03:02:40.634Z,0.00
2024-05-09T03:03:40.678Z,0.00
2024-05-09T03:04:40.544Z,0.00
2024-05-09T03:05:40.914Z,0.00
2024-05-09T03:06:40.492Z,0.00
2024-05-09T03:07:40.515Z,0.00
2024-05-09T03:08:40.493Z,0.00
2024-05-09T03:09:40.464Z,0.00
2024-05-09T03:10:40.527Z,0.00
2024-05-09T03:11:40.696Z,0.00
2024-05-09T03:12:40.528Z,0.00
2024-05-09T03:13:40.422Z,0.00
2024-05-09T03:14:40.438Z,0.00
2024-05-09T03:15:40.401Z,0.00
2024-05-09T03:16:40.382Z,0.00
2024-05-09T03:17:40.523Z,0.00
2024-05-09T03:18:40.421Z,0.00
2024-05-09T03:19:40.388Z,0.00
2024-05-09T03:20:40.622Z,0.00
2024-05-09T03:21:40.352Z,0.00
2024-05-09T03:22:40.327Z,0.00
2024-05-09T03:23:40.493Z,0.00
2024-05-09T03:24:40.298Z,0.00
2024-05-09T03:25:40.349Z,0.00
2024-05-09T03:26:40.327Z,0.00
2024-05-09T03:27:40.265Z,0.00
2024-05-09T03:28:40.250Z,0.00
2024-05-09T03:29:40.304Z,0.00
2024-05-09T03:30:42.703Z,0.00
2024-05-09T03:31:40.377Z,0.00
2024-05-09T03:32:40.348Z,0.00
2024-05-09T03:33:40.568Z,0.00
2024-05-09T03:34:40.191Z,0.00
2024-05-09T03:35:40.262Z,0.00
2024-05-09T03:36:40.161Z,0.00
2024-05-09T03:37:40.225Z,0.00
2024-05-09T03:38:40.179Z,0.00
2024-05-09T03:39:40.155Z,0.00
2024-05-09T03:40:40.138Z,0.00
2024-05-09T03:41:40.154Z,0.00
2024-05-09T03:42:40.104Z,0.00
2024-05-09T03:43:40.140Z,0.00
2024-05-09T03:44:40.206Z,0.00
2024-05-09T03:45:40.091Z,0.00
2024-05-09T03:46:40.054Z,0.00
2024-05-09T03:47:40.245Z,0.00
2024-05-09T03:48:40.126Z,0.00
2024-05-09T03:49:40.064Z,0.00
2024-05-09T03:50:40.208Z,0.00
2024-05-09T03:51:40.028Z,0.00
2024-05-09T03:52:39.998Z,0.00
2024-05-09T03:53:40.101Z,0.00
2024-05-09T03:54:39.967Z,0.00
2024-05-09T03:55:39.968Z,0.00
2024-05-09T03:56:40.038Z,0.00
2024-05-09T03:57:39.972Z,0.00
2024-05-09T03:58:39.964Z,0.00
2024-05-09T03:59:39.949Z,0.00
2024-05-09T04:00:40.457Z,0.00
2024-05-09T04:01:39.989Z,0.00
2024-05-09T04:02:39.988Z,0.00
2024-05-09T04:03:40.094Z,0.00
2024-05-09T04:04:39.921Z,0.00
2024-05-09T04:05:41.053Z,0.00
2024-05-09T04:06:39.852Z,0.00
2024-05-09T04:07:39.831Z,0.00
2024-05-09T04:08:39.950Z,0.00
2024-05-09T04:09:39.825Z,0.00
2024-05-09T04:10:39.803Z,0.00
2024-05-09T04:11:39.922Z,0.00
2024-05-09T04:12:39.787Z,0.00
2024-05-09T04:13:39.797Z,0.00
2024-05-09T04:14:39.819Z,0.00
2024-05-09T04:15:39.783Z,0.00
2024-05-09T04:16:39.732Z,0.00
2024-05-09T04:17:39.959Z,0.00
2024-05-09T04:18:39.874Z,0.00
2024-05-09T04:19:39.857Z,0.00
2024-05-09T04:20:41.125Z,0.00
2024-05-09T04:21:39.707Z,0.00
2024-05-09T04:22:39.669Z,0.00
2024-05-09T04:23:39.781Z,0.00
2024-05-09T04:24:39.651Z,0.00
2024-05-09T04:25:39.642Z,0.00
2024-05-09T04:26:39.732Z,0.00
2024-05-09T04:27:39.640Z,0.00
2024-05-09T04:28:39.670Z,0.00
2024-05-09T04:29:39.694Z,0.00
2024-05-09T04:30:41.426Z,0.00
2024-05-09T04:31:39.573Z,0.00
2024-05-09T04:32:39.668Z,0.00
2024-05-09T04:33:39.742Z,5.62
2024-05-09T04:34:39.607Z,5.62
2024-05-09T04:35:39.835Z,5.62
2024-05-09T04:36:42.469Z,5.62
2024-05-09T04:37:39.507Z,5.62
2024-05-09T04:38:39.638Z,5.62
2024-05-09T04:39:39.486Z,5.62
2024-05-09T04:40:39.533Z,5.62
2024-05-09T04:41:39.517Z,5.62
2024-05-09T04:42:39.475Z,5.62
2024-05-09T04:43:39.454Z,5.62
2024-05-09T04:44:39.494Z,5.62
2024-05-09T04:45:39.470Z,5.62
2024-05-09T04:46:39.410Z,5.62
2024-05-09T04:47:39.551Z,5.62
2024-05-09T04:48:39.513Z,5.62
2024-05-09T04:49:39.448Z,5.62
2024-05-09T04:50:40.012Z,5.62
2024-05-09T04:51:39.360Z,5.62
2024-05-09T04:52:39.465Z,5.62
2024-05-09T04:53:39.511Z,5.62
2024-05-09T04:54:39.341Z,5.62
2024-05-09T04:55:39.966Z,5.62
2024-05-09T04:56:39.362Z,5.62
2024-05-09T04:57:39.297Z,5.62
2024-05-09T04:58:39.306Z,5.62
2024-05-09T04:59:39.336Z,5.62
2024-05-09T05:00:40.555Z,5.62
2024-05-09T05:01:39.268Z,5.62
2024-05-09T05:02:39.349Z,5.62
2024-05-09T05:03:39.579Z,5.62
2024-05-09T05:04:39.242Z,5.62
2024-05-09T05:05:39.276Z,5.62
2024-05-09T05:06:39.192Z,5.62
2024-05-09T05:07:39.193Z,5.62
2024-05-09T05:08:39.324Z,5.62
2024-05-09T05:09:39.165Z,5.62
2024-05-09T05:10:39.182Z,5.62
2024-05-09T05:11:39.246Z,5.62
2024-05-09T05:12:39.120Z,5.62
2024-05-09T05:13:41.347Z,5.62
2024-05-09T05:14:39.162Z,5.62
2024-05-09T05:15:39.104Z,5.62
2024-05-09T05:16:39.101Z,5.62
2024-05-09T05:17:39.331Z,5.62
2024-05-09T05:18:39.122Z,5.62
2024-05-09T05:19:39.207Z,5.62
2024-05-09T05:20:39.066Z,5.62
2024-05-09T05:21:39.052Z,5.62
2024-05-09T05:22:39.031Z,11.25
2024-05-09T05:23:39.116Z,11.25
2024-05-09T05:24:39.034Z,11.25
2024-05-09T05:25:38.989Z,11.25
2024-05-09T05:26:39.056Z,11.25
2024-05-09T05:27:38.992Z,11.25
2024-05-09T05:28:38.963Z,11.25
2024-05-09T05:29:38.980Z,11.25
2024-05-09T05:30:38.996Z,11.25
2024-05-09T05:31:38.967Z,11.25
2024-05-09T05:32:39.068Z,11.25
2024-05-09T05:33:39.147Z,11.25
2024-05-09T05:34:38.898Z,11.25
2024-05-09T05:35:38.904Z,11.25
2024-05-09T05:36:38.863Z,11.25
2024-05-09T05:37:38.859Z,11.25
2024-05-09T05:38:38.909Z,16.88
2024-05-09T05:39:38.835Z,16.88
2024-05-09T05:40:40.100Z,16.88
2024-05-09T05:41:38.912Z,11.25
2024-05-09T05:42:38.799Z,16.88
2024-05-09T05:43:38.805Z,16.88
2024-05-09T05:44:38.838Z,16.88
2024-05-09T05:45:39.281Z,16.88
2024-05-09T05:46:38.806Z,16.88
2024-05-09T05:47:38.936Z,16.88
2024-05-09T05:48:38.894Z,16.88
2024-05-09T05:49:38.897Z,16.88
2024-05-09T05:50:39.107Z,16.88
2024-05-09T05:51:38.728Z,22.50
2024-05-09T05:52:38.688Z,28.12
2024-05-09T05:53:38.905Z,22.50
2024-05-09T05:54:38.667Z,22.50
2024-05-09T05:55:38.759Z,22.50
2024-05-09T05:56:38.712Z,16.88
2024-05-09T05:57:38.648Z,22.50
2024-05-09T05:58:38.622Z,22.50
2024-05-09T05:59:38.806Z,22.50
2024-05-09T06:00:40.307Z,22.50
2024-05-09T06:01:38.664Z,22.50
2024-05-09T06:02:38.640Z,28.12
2024-05-09T06:03:38.945Z,28.12
2024-05-09T06:04:38.596Z,28.12
2024-05-09T06:05:38.676Z,28.12
2024-05-09T06:06:38.568Z,28.12
2024-05-09T06:07:38.560Z,28.12
2024-05-09T06:08:38.576Z,28.12
2024-05-09T06:09:38.518Z,28.12
2024-05-09T06:10:40.639Z,22.50
2024-05-09T06:11:38.556Z,22.50
2024-05-09T06:12:38.535Z,22.50
2024-05-09T06:13:38.465Z,22.50
2024-05-09T06:14:38.527Z,22.50
2024-05-09T06:15:38.445Z,22.50
2024-05-09T06:16:38.436Z,22.50
2024-05-09T06:17:38.642Z,16.88
2024-05-09T06:18:38.515Z,22.50
2024-05-09T06:19:38.492Z,16.88
2024-05-09T06:20:38.647Z,16.88
2024-05-09T06:21:38.387Z,16.88
2024-05-09T06:22:47.458Z,16.88
2024-05-09T06:23:38.489Z,16.88
2024-05-09T06:24:38.349Z,16.88
2024-05-09T06:25:38.520Z,16.88
2024-05-09T06:26:38.371Z,16.88
2024-05-09T06:27:38.322Z,16.88
2024-05-09T06:28:38.333Z,16.88
2024-05-09T06:29:38.395Z,16.88
2024-05-09T06:30:40.987Z,22.50
2024-05-09T06:31:38.271Z,22.50
2024-05-09T06:32:38.519Z,22.50
2024-05-09T06:33:38.409Z,22.50
2024-05-09T06:34:38.334Z,22.50
2024-05-09T06:35:38.394Z,22.50
2024-05-09T06:36:38.220Z,28.12
2024-05-09T06:37:38.235Z,28.12
2024-05-09T06:38:38.419Z,28.12
2024-05-09T06:39:38.197Z,28.12
2024-05-09T06:40:40.024Z,22.50
2024-05-09T06:41:38.241Z,22.50
2024-05-09T06:42:38.167Z,22.50
2024-05-09T06:43:38.188Z,22.50
2024-05-09T06:44:38.165Z,22.50
2024-05-09T06:45:38.133Z,22.50
2024-05-09T06:46:38.118Z,22.50
2024-05-09T06:47:38.342Z,22.50
2024-05-09T06:48:38.217Z,22.50
2024-05-09T06:49:38.166Z,22.50
2024-05-09T06:50:39.511Z,22.50
2024-05-09T06:51:38.076Z,28.12
2024-05-09T06:52:38.061Z,28.12
2024-05-09T06:53:38.228Z,22.50
2024-05-09T06:54:38.032Z,22.50
2024-05-09T06:55:38.289Z,28.12
2024-05-09T06:56:38.062Z,28.12
2024-05-09T06:57:39.167Z,33.75
2024-05-09T06:58:37.991Z,33.75
2024-05-09T06:59:38.038Z,39.38
2024-05-09T07:00:40.538Z,33.75
2024-05-09T07:01:38.017Z,45.00
2024-05-09T07:02:38.176Z,45.00
2024-05-09T07:03:38.069Z,28.12
2024-05-09T07:04:38.123Z,28.12
2024-05-09T07:05:37.977Z,39.38
2024-05-09T07:06:37.954Z,50.62
2024-05-09T07:07:37.876Z,28.12
2024-05-09T07:08:37.971Z,22.50
2024-05-09T07:09:37.880Z,33.75
2024-05-09T07:10:38.268Z,50.62
2024-05-09T07:11:37.985Z,50.62
2024-05-09T07:12:37.848Z,61.88
2024-05-09T07:13:37.934Z,61.88
2024-05-09T07:14:38.572Z,61.88
2024-05-09T07:15:37.864Z,50.62
2024-05-09T07:16:37.790Z,45.00
2024-05-09T07:17:37.934Z,39.38
2024-05-09T07:18:37.980Z,39.38
2024-05-09T07:19:37.898Z,33.75
2024-05-09T07:20:37.851Z,39.38
2024-05-09T07:21:37.741Z,39.38
2024-05-09T07:22:37.748Z,39.38
2024-05-09T07:23:37.816Z,67.50
2024-05-09T07:24:37.700Z,67.50
2024-05-09T07:25:37.700Z,61.88
2024-05-09T07:26:37.818Z,67.50
2024-05-09T07:27:37.667Z,73.12
2024-05-09T07:28:37.676Z,61.88
2024-05-09T07:29:38.869Z,56.25
2024-05-09T07:30:37.632Z,73.12
2024-05-09T07:31:37.636Z,73.12
2024-05-09T07:32:37.806Z,78.75
2024-05-09T07:33:37.738Z,61.88
2024-05-09T07:34:37.724Z,39.38
2024-05-09T07:35:37.816Z,61.88
2024-05-09T07:36:37.579Z,73.12
2024-05-09T07:37:37.575Z,73.12
2024-05-09T07:38:37.744Z,61.88
2024-05-09T07:39:37.540Z,61.88
2024-05-09T07:40:37.532Z,73.12
2024-05-09T07:41:37.820Z,73.12
2024-05-09T07:42:37.511Z,73.12
2024-05-09T07:43:37.499Z,73.12
2024-05-09T07:44:37.553Z,78.75
2024-05-09T07:45:48.350Z,61.88
2024-05-09T07:47:47.323Z,67.50
2024-05-09T07:48:58.072Z,67.50
2024-05-09T07:53:14.289Z,67.50
2024-05-09T07:53:33.733Z,73.12
2024-05-09T07:53:43.865Z,73.12
2024-05-09T07:54:38.630Z,73.12
2024-05-09T07:55:37.562Z,73.12
2024-05-09T07:56:37.509Z,73.12
2024-05-09T07:57:37.458Z,67.50
2024-05-09T07:58:37.377Z,67.50
2024-05-09T07:59:38.010Z,73.12
2024-05-09T08:00:37.442Z,73.12
2024-05-09T08:01:37.562Z,78.75
2024-05-09T08:02:37.303Z,78.75
2024-05-09T08:03:37.529Z,73.12
2024-05-09T08:04:37.407Z,73.12
2024-05-09T08:05:37.433Z,73.12
2024-05-09T08:06:37.292Z,73.12
2024-05-09T08:07:37.240Z,73.12
2024-05-09T08:08:37.229Z,73.12
2024-05-09T08:09:38.415Z,73.12
2024-05-09T08:10:37.320Z,73.12
2024-05-09T08:11:37.224Z,73.12
2024-05-09T08:12:37.253Z,73.12
2024-05-09T08:13:37.214Z,73.12
2024-05-09T08:14:37.163Z,73.12
2024-05-09T08:15:37.210Z,73.12
2024-05-09T08:16:37.180Z,73.12
2024-05-09T08:17:37.191Z,73.12
2024-05-09T08:18:37.393Z,73.12
2024-05-09T08:19:37.138Z,78.75
2024-05-09T08:20:37.095Z,78.75
2024-05-09T08:21:37.111Z,78.75
2024-05-09T08:22:37.097Z,78.75
2024-05-09T08:23:37.066Z,73.12
2024-05-09T08:24:37.133Z,73.12
2024-05-09T08:25:37.039Z,73.12
2024-05-09T08:26:37.031Z,73.12
2024-05-09T08:27:37.091Z,73.12
2024-05-09T08:28:37.036Z,73.12
2024-05-09T08:29:37.018Z,73.12
2024-05-09T08:30:38.190Z,73.12
2024-05-09T08:31:37.003Z,73.12
2024-05-09T08:32:36.996Z,73.12
2024-05-09T08:33:37.317Z,73.12
2024-05-09T08:34:37.006Z,73.12
2024-05-09T08:35:36.954Z,73.12
2024-05-09T08:36:36.985Z,73.12
2024-05-09T08:37:39.911Z,73.12
2024-05-09T08:38:36.896Z,73.12
2024-05-09T08:39:36.977Z,73.12
2024-05-09T08:40:38.070Z,73.12
2024-05-09T08:41:36.866Z,73.12
2024-05-09T08:42:36.900Z,73.12
2024-05-09T08:43:39.871Z,73.12
2024-05-09T08:44:36.830Z,73.12
2024-05-09T08:45:36.955Z,73.12
2024-05-09T08:46:36.837Z,73.12
2024-05-09T08:47:36.998Z,73.12
2024-05-09T08:48:37.012Z,73.12
2024-05-09T08:49:37.791Z,73.12
2024-05-09T08:50:39.321Z,73.12
2024-05-09T08:51:36.811Z,73.12
2024-05-09T08:52:36.744Z,73.12
2024-05-09T08:53:36.737Z,73.12
2024-05-09T08:54:36.753Z,73.12
2024-05-09T08:55:40.452Z,73.12
2024-05-09T08:56:36.717Z,73.12
2024-05-09T08:57:36.744Z,73.12
2024-05-09T08:58:36.702Z,73.12
2024-05-09T08:59:36.682Z,73.12
2024-05-09T09:00:37.757Z,73.12
2024-05-09T09:01:37.995Z,73.12
2024-05-09T09:02:36.757Z,73.12
2024-05-09T09:03:37.014Z,73.12
2024-05-09T09:04:36.737Z,73.12
2024-05-09T09:05:37.019Z,73.12
2024-05-09T09:06:36.638Z,78.75
2024-05-09T09:07:36.614Z,78.75
2024-05-09T09:08:36.588Z,73.12
2024-05-09T09:09:36.609Z,73.12
2024-05-09T09:10:36.730Z,78.75
2024-05-09T09:11:36.556Z,78.75
2024-05-09T09:12:36.618Z,78.75
2024-05-09T09:13:36.554Z,78.75
2024-05-09T09:14:36.551Z,78.75
2024-05-09T09:15:36.595Z,78.75
2024-05-09T09:16:36.500Z,78.75
2024-05-09T09:17:36.649Z,78.75
2024-05-09T09:18:36.655Z,78.75
2024-05-09T09:19:36.535Z,67.50
2024-05-09T09:20:37.209Z,78.75
2024-05-09T09:21:36.511Z,78.75
2024-05-09T09:22:36.433Z,78.75
2024-05-09T09:23:36.419Z,78.75
2024-05-09T09:24:36.446Z,78.75
2024-05-09T09:25:36.383Z,78.75
2024-05-09T09:26:36.385Z,78.75
2024-05-09T09:27:36.410Z,78.75
2024-05-09T09:28:36.406Z,78.75
2024-05-09T09:29:36.350Z,78.75
2024-05-09T09:30:38.035Z,78.75
2024-05-09T09:31:36.357Z,78.75
2024-05-09T09:32:36.378Z,78.75
2024-05-09T09:33:36.825Z,78.75
2024-05-09T09:34:36.350Z,78.75
2024-05-09T09:35:36.310Z,78.75
2024-05-09T09:36:36.317Z,78.75
2024-05-09T09:37:36.267Z,78.75
2024-05-09T09:38:36.304Z,78.75
2024-05-09T09:39:36.279Z,78.75
2024-05-09T09:40:40.456Z,78.75
2024-05-09T09:41:37.221Z,78.75
2024-05-09T09:42:36.261Z,78.75
2024-05-09T09:43:36.197Z,78.75
2024-05-09T09:44:39.533Z,78.75
2024-05-09T09:45:37.228Z,78.75
2024-05-09T09:46:36.195Z,78.75
2024-05-09T09:47:36.266Z,78.75
2024-05-09T09:48:36.287Z,78.75
2024-05-09T09:49:36.282Z,78.75
2024-05-09T09:50:36.126Z,78.75
2024-05-09T09:51:36.137Z,78.75
2024-05-09T09:52:36.096Z,78.75
2024-05-09T09:53:36.084Z,78.75
2024-05-09T09:54:36.151Z,73.12
2024-05-09T09:55:36.075Z,78.75
2024-05-09T09:56:36.063Z,78.75
2024-05-09T09:57:36.093Z,78.75
2024-05-09T09:58:36.096Z,73.12
2024-05-09T09:59:36.030Z,78.75
2024-05-09T10:00:36.236Z,78.75
2024-05-09T10:01:36.245Z,78.75
2024-05-09T10:02:36.118Z,78.75
2024-05-09T10:03:36.157Z,78.75
2024-05-09T10:04:36.077Z,73.12
2024-05-09T10:05:36.153Z,78.75
2024-05-09T10:06:36.066Z,73.12
2024-05-09T10:07:35.958Z,73.12
2024-05-09T10:08:35.932Z,78.75
2024-05-09T10:09:35.929Z,84.38
2024-05-09T10:10:36.572Z,84.38
2024-05-09T10:11:42.090Z,84.38
2024-05-09T10:12:36.961Z,84.38
2024-05-09T10:13:35.978Z,84.38
2024-05-09T10:14:35.869Z,90.00
2024-05-09T10:15:35.886Z,90.00
2024-05-09T10:16:35.919Z,90.00
2024-05-09T10:17:36.122Z,78.75
2024-05-09T10:18:35.990Z,73.12
2024-05-09T10:19:35.940Z,73.12
2024-05-09T10:20:35.900Z,73.12
2024-05-09T10:21:35.911Z,73.12
2024-05-09T10:22:35.779Z,73.12
2024-05-09T10:23:35.792Z,73.12
2024-05-09T10:24:35.832Z,73.12
2024-05-09T10:25:35.794Z,73.12
2024-05-09T10:26:35.808Z,78.75
2024-05-09T10:27:35.758Z,73.12
2024-05-09T10:28:36.121Z,73.12
2024-05-09T10:29:35.707Z,73.12
2024-05-09T10:30:36.735Z,73.12
2024-05-09T10:31:35.706Z,73.12
2024-05-09T10:32:35.746Z,73.12
2024-05-09T10:33:35.768Z,73.12
2024-05-09T10:34:35.743Z,73.12
2024-05-09T10:35:35.672Z,73.12
2024-05-09T10:36:35.732Z,73.12
2024-05-09T10:37:35.700Z,73.12
2024-05-09T10:38:35.644Z,73.12
2024-05-09T10:39:35.647Z,73.12
2024-05-09T10:40:35.671Z,73.12
2024-05-09T10:41:35.603Z,67.50
2024-05-09T10:42:35.576Z,67.50
2024-05-09T10:43:35.556Z,67.50
2024-05-09T10:44:35.548Z,67.50
2024-05-09T10:45:35.637Z,67.50
2024-05-09T10:46:35.553Z,67.50
2024-05-09T10:47:35.613Z,67.50
2024-05-09T10:48:35.621Z,73.12
2024-05-09T10:49:35.553Z,73.12
2024-05-09T10:50:35.520Z,73.12
2024-05-09T10:51:35.487Z,73.12
2024-05-09T10:52:35.461Z,73.12
2024-05-09T10:53:35.482Z,73.12
2024-05-09T10:54:35.620Z,73.12
2024-05-09T10:55:36.372Z,73.12
2024-05-09T10:56:35.419Z,73.12
2024-05-09T10:57:35.538Z,73.12
2024-05-09T10:58:35.402Z,73.12
2024-05-09T10:59:35.397Z,73.12
2024-05-09T11:00:36.491Z,73.12
2024-05-09T11:01:35.524Z,73.12
2024-05-09T11:02:35.486Z,73.12
2024-05-09T11:03:35.953Z,73.12
2024-05-09T11:04:35.403Z,73.12
2024-05-09T11:05:35.477Z,73.12
2024-05-09T11:06:35.390Z,73.12
2024-05-09T11:07:35.311Z,73.12
2024-05-09T11:08:35.313Z,73.12
2024-05-09T11:09:35.354Z,73.12
2024-05-09T11:10:35.360Z,67.50
2024-05-09T11:11:35.347Z,67.50
2024-05-09T11:12:35.285Z,67.50
2024-05-09T11:13:35.276Z,67.50
2024-05-09T11:14:35.232Z,67.50
2024-05-09T11:15:35.275Z,67.50
2024-05-09T11:16:35.239Z,67.50
2024-05-09T11:17:35.381Z,67.50
2024-05-09T11:18:38.274Z,67.50
2024-05-09T11:19:35.325Z,67.50
2024-05-09T11:20:35.705Z,67.50
2024-05-09T11:21:35.236Z,67.50
2024-05-09T11:22:35.187Z,67.50
2024-05-09T11:23:35.161Z,67.50
2024-05-09T11:24:35.162Z,67.50
2024-05-09T11:25:35.133Z,67.50
2024-05-09T11:26:35.111Z,67.50
2024-05-09T11:27:35.182Z,67.50
2024-05-09T11:28:35.117Z,67.50
2024-05-09T11:29:35.099Z,67.50
2024-05-09T11:30:35.102Z,67.50
2024-05-09T11:31:35.139Z,67.50
2024-05-09T11:32:35.306Z,67.50
2024-05-09T11:33:35.088Z,67.50
2024-05-09T11:34:35.110Z,67.50
2024-05-09T11:35:35.043Z,67.50
2024-05-09T11:36:35.120Z,67.50
2024-05-09T11:37:37.162Z,67.50
2024-05-09T11:38:34.996Z,67.50
2024-05-09T11:39:35.011Z,67.50
2024-05-09T11:40:35.117Z,67.50
2024-05-09T11:41:34.951Z,67.50
2024-05-09T11:42:34.949Z,67.50
2024-05-09T11:43:35.030Z,67.50
2024-05-09T11:44:34.926Z,67.50
2024-05-09T11:45:34.956Z,67.50
2024-05-09T11:46:34.930Z,61.88
2024-05-09T11:47:35.011Z,61.88
2024-05-09T11:48:35.060Z,61.88
2024-05-09T11:49:34.961Z,61.88
2024-05-09T11:50:36.052Z,61.88
2024-05-09T11:51:34.894Z,61.88
2024-05-09T11:52:34.885Z,61.88
2024-05-09T11:53:34.818Z,61.88
2024-05-09T11:54:34.846Z,61.88
2024-05-09T11:55:34.869Z,61.88
2024-05-09T11:56:34.795Z,61.88
2024-05-09T11:57:34.818Z,67.50
2024-05-09T11:58:35.025Z,67.50
2024-05-09T11:59:34.758Z,67.50
2024-05-09T12:00:37.424Z,61.88
2024-05-09T12:01:34.831Z,61.88
2024-05-09T12:02:34.842Z,61.88
2024-05-09T12:03:34.954Z,61.88
2024-05-09T12:04:34.788Z,61.88
2024-05-09T12:05:35.066Z,61.88
2024-05-09T12:06:34.745Z,61.88
2024-05-09T12:07:34.668Z,61.88
2024-05-09T12:08:34.658Z,61.88
2024-05-09T12:09:34.746Z,61.88
2024-05-09T12:10:36.259Z,61.88
2024-05-09T12:11:34.669Z,61.88
2024-05-09T12:12:37.108Z,61.88
2024-05-09T12:13:34.690Z,61.88
2024-05-09T12:14:34.633Z,61.88
2024-05-09T12:15:34.621Z,61.88
2024-05-09T12:16:34.676Z,61.88
2024-05-09T12:17:34.632Z,61.88
2024-05-09T12:18:34.631Z,61.88
2024-05-09T12:19:34.711Z,61.88
2024-05-09T12:20:37.882Z,56.25
2024-05-09T12:21:35.558Z,56.25
2024-05-09T12:22:34.524Z,56.25
2024-05-09T12:23:34.500Z,56.25
2024-05-09T12:24:34.521Z,56.25
2024-05-09T12:25:34.517Z,56.25
2024-05-09T12:26:34.468Z,56.25
2024-05-09T12:27:34.493Z,56.25
2024-05-09T12:28:34.449Z,56.25
2024-05-09T12:29:36.279Z,56.25
2024-05-09T12:30:38.123Z,56.25
2024-05-09T12:31:35.533Z,56.25
2024-05-09T12:32:34.484Z,56.25
2024-05-09T12:33:34.507Z,56.25
2024-05-09T12:34:34.397Z,56.25
2024-05-09T12:35:34.426Z,56.25
2024-05-09T12:36:34.448Z,50.62
2024-05-09T12:37:34.367Z,50.62
2024-05-09T12:38:34.350Z,50.62
2024-05-09T12:39:34.410Z,50.62
2024-05-09T12:40:37.516Z,50.62
2024-05-09T12:41:34.317Z,50.62
2024-05-09T12:42:34.431Z,50.62
2024-05-09T12:43:34.377Z,50.62
2024-05-09T12:44:34.311Z,50.62
2024-05-09T12:45:34.363Z,50.62
2024-05-09T12:46:34.329Z,50.62
2024-05-09T12:47:34.404Z,50.62
2024-05-09T12:48:34.530Z,50.62
2024-05-09T12:49:34.360Z,50.62
2024-05-09T12:50:34.923Z,50.62
2024-05-09T12:51:34.242Z,50.62
2024-05-09T12:52:34.200Z,50.62
2024-05-09T12:53:34.200Z,50.62
2024-05-09T12:54:34.234Z,50.62
2024-05-09T12:55:41.271Z,50.62
2024-05-09T12:56:35.150Z,50.62
2024-05-09T12:57:34.197Z,50.62
2024-05-09T12:58:34.191Z,50.62
2024-05-09T12:59:34.130Z,50.62
2024-05-09T13:00:34.678Z,45.00
2024-05-09T13:01:34.345Z,45.00
2024-05-09T13:02:34.238Z,45.00
2024-05-09T13:03:34.267Z,45.00
2024-05-09T13:04:34.445Z,45.00
2024-05-09T13:05:34.230Z,45.00
2024-05-09T13:06:34.100Z,45.00